Time;durP1;ratioP1;P1;durP2;ratioP2;P2;SDS_P1;SDS_P2;PMS_P1;PMS_P2;Temp;Humidity;BMP_temperature;BMP_pressure;BME280_temperature;BME280_humidity;BME280_pressure;Samples;Min_cycle;Max_cycle;Signal;HPM_P1;HPM_P2
2023/01/18 00:01:53;;;;;;;30.48;12.45;;;;;;;-0.88;70.61;99649.94;4757246;30;20553;-83
2023/01/18 00:04:22;;;;;;;26.52;10.50;;;;;;;-0.07;71.28;99769.44;4753185;30;20597;-81
2023/01/18 00:06:52;;;;;;;30.25;13.15;;;;;;;-0.37;70.43;99725.78;4754198;30;20052;-82
2023/01/18 00:09:33;;;;;;;28.50;12.70;;;;;;;-0.02;70.87;99779.84;4767335;30;20876;-82
2023/01/18 00:12:03;;;;;;;33.30;12.55;;;;;;;0.34;70.99;99842.44;4737380;30;20069;-82
2023/01/18 00:15:01;;;;;;;28.60;12.45;;;;;;;-0.33;70.38;99738.72;4739377;30;20428;-82
2023/01/18 00:17:46;;;;;;;34.53;13.40;;;;;;;-1.02;70.35;99604.34;4784993;29;20083;-80
2023/01/18 00:20:49;;;;;;;30.58;12.15;;;;;;;-0.49;71.42;99690.44;4784798;30;20071;-81
2023/01/18 00:23:42;;;;;;;32.42;14.23;;;;;;;-0.25;71.40;99731.34;4741239;30;20060;-81
2023/01/18 00:26:57;;;;;;;29.20;12.52;;;;;;;-0.74;70.53;99656.38;4751150;30;20052;-81
2023/01/18 00:34:29;;;;;;;26.30;12.18;;;;;;;-0.85;70.87;99693.47;4781347;29;20528;-81
2023/01/18 00:37:19;;;;;;;29.13;12.43;;;;;;;-0.06;71.26;99818.94;4776392;29;20104;-82
2023/01/18 00:39:58;;;;;;;;;;;;;;;;;;;;;
2023/01/18 00:45:27;;;;;;;28.60;11.82;;;;;;;0.33;70.64;99885.09;4764008;30;20094;-81
2023/01/18 00:48:01;;;;;;;27.92;12.70;;;;;;;-0.59;71.00;99691.81;4781897;29;20068;-81
2023/01/18 00:50:35;;;;;;;29.25;13.13;;;;;;;0.13;70.82;99776.91;4766055;30;20048;-80
2023/01/18 00:53:43;;;;;;;27.77;11.75;;;;;;;-0.64;70.87;99649.91;4760351;30;20043;-80
2023/01/18 00:56:32;;;;;;;;;;;;;;;;;;;;;
2023/01/18 00:59:12;;;;;;;29.83;13.02;;;;;;;-0.69;70.17;99670.19;4779748;29;20056;-82
2023/01/18 01:01:55;;;;;;;;;;;;;;;0.52;70.78;99849.84;4751521;30;20048;-82
2023/01/18 01:07:32;;;;;;;29.52;12.00;;;;;;;-0.80;71.03;99676.63;4761183;30;20484;-81
2023/01/18 01:10:50;;;;;;;;;;;;;;;;;;;;;
2023/01/18 01:26:20;;;;;;;29.70;12.65;;;;;;;0.41;70.94;99834.13;4762578;30;20518;-82
2023/01/18 01:28:50;;;;;;;;;;;;;;;0.48;71.71;99843.78;4750062;30;20056;-81
2023/01/18 01:31:30;;;;;;;28.55;11.80;;;;;;;0.22;70.74;99813.06;4764735;30;19934;-83
2023/01/18 01:33:59;;;;;;;30.17;12.07;;;;;;;-0.33;71.41;99720.84;4749868;30;20146;-80
2023/01/18 01:36:33;;;;;;;28.10;12.40;;;;;;;0.15;71.22;99808.53;4749779;30;20051;-83
2023/01/18 01:39:11;;;;;;;25.23;11.68;;;;;;;-0.25;70.99;99735.56;4754474;30;20052;-82
2023/01/18 01:41:39;;;;;;;30.40;12.60;;;;;;;-0.19;71.14;99715.31;4767802;30;20043;-83
2023/01/18 01:44:18;;;;;;;23.58;12.15;;;;;;;0.52;70.95;99840.50;4784655;29;20097;-83
2023/01/18 01:47:38;;;;;;;28.00;12.43;;;;;;;-0.31;71.38;99700.44;4776848;29;20203;-81
2023/01/18 01:50:39;;;;;;;26.33;11.88;;;;;;;-0.46;71.37;99724.69;4769657;29;20044;-82
2023/01/18 01:53:06;;;;;;;29.83;13.15;;;;;;;-0.52;71.56;99664.78;4754303;30;20513;-82
2023/01/18 01:55:36;;;;;;;28.35;11.48;;;;;;;0.48;71.51;99843.78;4768373;30;20044;-81
2023/01/18 01:58:09;;;;;;;27.98;13.45;;;;;;;0.51;71.38;99825.94;4785233;29;20118;-81
2023/01/18 02:00:36;;;;;;;23.90;11.57;;;;;;;0.42;71.84;99793.25;4770792;30;20043;-82
2023/01/18 02:03:07;;;;;;;23.70;10.02;;;;;;;0.57;71.17;99831.25;4769950;30;20043;-80
2023/01/18 02:05:39;;;;;;;26.85;12.50;;;;;;;0.45;71.25;99808.69;4769381;30;20204;-81
2023/01/18 02:08:10;;;;;;;18.10;9.27;;;;;;;0.36;71.81;99804.94;4768083;30;20078;-82
2023/01/18 02:10:37;;;;;;;26.00;11.20;;;;;;;0.23;71.82;99760.16;4752898;30;20051;-82
2023/01/18 02:13:08;;;;;;;22.75;10.50;;;;;;;0.39;71.32;99794.81;4753144;30;20131;-79
2023/01/18 02:15:55;;;;;;;25.13;11.77;;;;;;;0.42;71.42;99810.28;4755517;30;20058;-79
2023/01/18 02:18:45;;;;;;;20.40;10.52;;;;;;;-0.09;71.72;99732.69;4771636;30;20043;-80
2023/01/18 02:21:28;;;;;;;27.88;11.60;;;;;;;0.43;72.17;99796.66;4762260;30;20051;-81
2023/01/18 02:24:13;;;;;;;23.75;10.75;;;;;;;0.57;71.74;99815.03;4773538;30;20054;-80
2023/01/18 02:26:51;;;;;;;22.00;10.75;;;;;;;0.53;71.03;99826.88;4771252;30;20072;-79
2023/01/18 02:29:36;;;;;;;24.25;10.30;;;;;;;0.36;70.80;99807.50;4786260;29;20081;-81
2023/01/18 02:32:21;;;;;;;21.63;9.48;;;;;;;0.54;71.02;99813.25;4756819;30;20054;-82
2023/01/18 02:34:52;;;;;;;17.95;8.07;;;;;;;0.52;71.57;99814.00;4756962;30;20075;-80
2023/01/18 02:37:51;;;;;;;21.15;10.32;;;;;;;0.52;71.80;99809.78;4771866;30;20577;-82
2023/01/18 02:40:29;;;;;;;22.98;10.05;;;;;;;0.57;70.92;99820.16;4781295;30;20040;-80
2023/01/18 02:48:39;;;;;;;16.73;8.85;;;;;;;0.58;70.89;99832.13;4797398;29;20051;-79
2023/01/18 02:51:07;;;;;;;19.27;9.55;;;;;;;0.42;70.57;99800.03;4783607;30;20058;-81
2023/01/18 02:53:39;;;;;;;16.98;8.70;;;;;;;0.58;70.48;99827.00;4772264;30;20058;-81
2023/01/18 02:56:12;;;;;;;19.95;8.85;;;;;;;0.59;70.13;99832.16;4774304;30;20107;-82
2023/01/18 02:58:47;;;;;;;22.35;10.15;;;;;;;0.34;70.83;99802.34;4772456;30;20043;-80
2023/01/18 03:01:29;;;;;;;17.92;8.30;;;;;;;0.55;70.22;99837.16;4758634;30;20531;-81
2023/01/18 03:04:09;;;;;;;15.95;8.20;;;;;;;0.42;70.13;99812.84;4773401;30;20074;-80
2023/01/18 03:06:41;;;;;;;19.75;9.45;;;;;;;0.42;70.27;99816.28;4771942;30;20163;-81
2023/01/18 03:09:17;;;;;;;17.33;7.93;;;;;;;0.20;70.42;99796.78;4774979;30;20397;-81
2023/01/18 03:12:11;;;;;;;18.70;8.25;;;;;;;0.55;69.84;99849.97;4761452;30;20148;-81
2023/01/18 03:15:21;;;;;;;17.30;7.40;;;;;;;0.46;69.82;99835.16;4772813;30;20055;-81
2023/01/18 03:17:58;;;;;;;18.65;8.95;;;;;;;0.38;70.70;99805.88;4726189;30;20039;-81
2023/01/18 03:20:30;;;;;;;15.60;7.93;;;;;;;0.63;69.66;99857.88;4770099;30;20050;-81
2023/01/18 03:25:58;;;;;;;16.35;8.23;;;;;;;0.60;70.03;99866.34;4769439;30;20528;-81
2023/01/18 03:35:07;;;;;;;;;;;;;;;;;;;;;
2023/01/18 03:37:41;;;;;;;20.08;9.27;;;;;;;0.41;69.45;99829.03;4787144;30;20524;-81
2023/01/18 03:40:27;;;;;;;18.48;7.88;;;;;;;0.49;69.56;99840.41;4776660;30;20100;-82
2023/01/18 03:43:17;;;;;;;15.93;7.57;;;;;;;0.74;69.60;99862.53;4761941;30;20146;-81
2023/01/18 03:45:47;;;;;;;15.90;7.57;;;;;;;0.81;69.29;99865.28;4786352;29;20048;-83
2023/01/18 03:48:14;;;;;;;19.77;7.88;;;;;;;0.52;69.10;99853.31;4771422;30;20043;-80
2023/01/18 03:50:48;;;;;;;16.15;8.07;;;;;;;0.65;68.94;99886.97;4776551;30;20074;-80
2023/01/18 03:53:27;;;;;;;17.38;8.38;;;;;;;0.53;69.21;99851.59;4772446;30;20075;-80
2023/01/18 03:56:03;;;;;;;16.85;8.38;;;;;;;0.65;68.70;99881.88;4770539;30;20047;-80
2023/01/18 03:58:35;;;;;;;16.75;8.13;;;;;;;0.42;69.29;99830.75;4771145;30;20056;-83
2023/01/18 04:01:03;;;;;;;19.02;8.63;;;;;;;0.65;68.70;99864.81;4785471;29;20051;-82
2023/01/18 04:03:33;;;;;;;15.88;7.70;;;;;;;0.36;68.40;99804.94;4772425;30;20547;-81
2023/01/18 04:06:01;;;;;;;19.08;8.93;;;;;;;0.62;68.93;99851.03;4771444;30;20055;-82
2023/01/18 04:08:27;;;;;;;17.38;8.45;;;;;;;0.71;68.56;99882.91;4785339;29;20064;-82
2023/01/18 04:10:53;;;;;;;16.60;8.45;;;;;;;-0.36;68.89;99702.84;4771994;30;20039;-82
2023/01/18 04:13:22;;;;;;;16.38;8.23;;;;;;;0.81;68.74;99888.34;4771463;30;20058;-81
2023/01/18 04:15:48;;;;;;;15.68;8.27;;;;;;;0.01;68.35;99763.72;4794692;29;20090;-78
2023/01/18 04:18:16;;;;;;;15.63;7.35;;;;;;;0.67;67.77;99854.59;4790034;30;20039;-82
2023/01/18 04:20:42;;;;;;;15.93;7.13;;;;;;;0.78;68.00;99895.94;4793250;30;20063;-81
2023/01/18 04:23:08;;;;;;;15.98;8.27;;;;;;;0.64;67.73;99868.19;4773944;30;20462;-82
2023/01/18 04:25:34;;;;;;;17.55;8.35;;;;;;;0.23;68.03;99812.25;4771144;30;20082;-83
2023/01/18 04:28:00;;;;;;;14.25;7.90;;;;;;;0.83;68.54;99899.53;4785994;29;20073;-82
2023/01/18 04:30:29;;;;;;;17.70;8.40;;;;;;;0.34;68.52;99801.47;4772364;30;20051;-82
2023/01/18 04:32:57;;;;;;;17.85;8.13;;;;;;;-0.47;68.12;99661.59;4774204;30;20135;-81
2023/01/18 04:35:42;;;;;;;17.05;8.18;;;;;;;-0.13;67.89;99719.78;4775675;30;20115;-80
2023/01/18 04:38:08;;;;;;;17.20;7.63;;;;;;;0.14;67.34;99801.69;4790558;29;20645;-80
2023/01/18 04:40:36;;;;;;;15.68;7.70;;;;;;;0.39;67.67;99830.66;4759973;30;20127;-83
2023/01/18 04:43:03;;;;;;;17.23;8.55;;;;;;;0.27;67.98;99826.88;4760484;30;20146;-82
2023/01/18 04:45:35;;;;;;;17.10;7.93;;;;;;;-0.10;67.49;99766.78;4775592;30;20532;-81
2023/01/18 04:48:01;;;;;;;16.95;7.65;;;;;;;0.85;67.90;99905.56;4758790;30;20048;-82
2023/01/18 04:50:28;;;;;;;18.40;8.07;;;;;;;0.74;67.38;99894.97;4780477;30;20051;-82
2023/01/18 04:52:53;;;;;;;17.80;8.40;;;;;;;0.91;67.63;99913.44;4791513;29;20052;-81
2023/01/18 04:55:20;;;;;;;17.30;7.68;;;;;;;0.87;67.84;99898.81;4777154;30;20096;-81
2023/01/18 04:57:46;;;;;;;18.02;8.55;;;;;;;0.73;67.36;99880.44;4806194;29;20035;-82
2023/01/18 05:00:14;;;;;;;18.20;9.02;;;;;;;0.89;66.78;99918.53;4793648;29;20058;-80
2023/01/18 05:02:40;;;;;;;16.80;8.50;;;;;;;0.81;67.01;99919.09;4777160;29;20024;-82
2023/01/18 05:05:07;;;;;;;16.42;8.70;;;;;;;0.88;67.41;99921.06;4791633;29;20048;-82
2023/01/18 05:07:33;;;;;;;16.92;8.30;;;;;;;0.84;67.59;99932.03;4757631;30;20504;-81
2023/01/18 05:10:03;;;;;;;20.75;9.30;;;;;;;0.64;67.15;99890.38;4771902;30;20044;-82
2023/01/18 05:12:30;;;;;;;16.42;8.32;;;;;;;0.76;67.84;99911.28;4785218;29;20043;-81
2023/01/18 05:14:56;;;;;;;16.02;8.45;;;;;;;0.65;66.63;99893.00;4781434;30;20055;-80
2023/01/18 05:17:26;;;;;;;15.32;8.15;;;;;;;0.86;66.88;99938.06;4790232;29;20054;-80
2023/01/18 05:19:53;;;;;;;18.73;8.73;;;;;;;0.89;67.40;99933.00;4766269;30;20507;-80
2023/01/18 05:22:21;;;;;;;16.83;8.00;;;;;;;0.82;67.30;99921.69;4774740;30;20056;-79
2023/01/18 05:24:47;;;;;;;17.75;8.65;;;;;;;0.86;67.63;99933.78;4770463;30;20137;-81
2023/01/18 05:27:14;;;;;;;21.42;8.13;;;;;;;0.75;66.67;99912.94;4770598;30;20063;-82
2023/01/18 05:29:40;;;;;;;16.70;7.93;;;;;;;0.95;66.58;99947.75;4785524;29;20067;-82
2023/01/18 05:32:06;;;;;;;18.88;8.13;;;;;;;0.98;66.62;99945.28;4757595;30;20044;-79
2023/01/18 05:34:32;;;;;;;17.08;7.15;;;;;;;0.87;66.13;99956.03;4788554;29;20055;-80
2023/01/18 05:36:58;;;;;;;16.85;8.15;;;;;;;0.83;66.38;99955.91;4775022;30;20047;-81
2023/01/18 05:39:24;;;;;;;19.15;8.60;;;;;;;0.88;66.78;99947.53;4776300;30;20147;-80
2023/01/18 05:41:52;;;;;;;18.17;9.05;;;;;;;0.83;66.50;99943.09;4776308;30;20055;-80
2023/01/18 05:44:18;;;;;;;17.75;8.02;;;;;;;0.88;66.96;99955.22;4759953;30;20048;-82
2023/01/18 05:46:44;;;;;;;16.15;7.60;;;;;;;0.58;66.27;99914.09;4776675;30;20138;-79
2023/01/18 05:49:10;;;;;;;19.75;9.35;;;;;;;0.63;67.23;99904.00;4761134;30;20047;-81
2023/01/18 05:51:36;;;;;;;18.27;8.98;;;;;;;0.50;66.56;99897.59;4774491;30;20508;-78
2023/01/18 05:54:04;;;;;;;16.67;8.18;;;;;;;0.79;66.76;99931.00;4774041;30;20058;-81
2023/01/18 05:56:31;;;;;;;22.98;8.52;;;;;;;0.59;66.87;99916.69;4775105;30;20071;-80
2023/01/18 05:58:57;;;;;;;17.20;8.63;;;;;;;0.73;66.99;99954.72;4760278;30;20512;-81
2023/01/18 06:01:23;;;;;;;17.05;8.48;;;;;;;0.57;67.06;99927.72;4762911;30;20043;-78
2023/01/18 06:03:49;;;;;;;16.65;8.60;;;;;;;0.63;67.39;99909.13;4788878;29;20103;-77
2023/01/18 06:06:16;;;;;;;19.70;8.65;;;;;;;0.71;66.53;99930.75;4766321;30;20112;-79
2023/01/18 06:08:42;;;;;;;17.70;8.43;;;;;;;0.81;66.49;99978.03;4777481;30;20051;-80
2023/01/18 06:11:09;;;;;;;18.08;8.80;;;;;;;0.81;66.68;99954.97;4774088;30;20055;-81
2023/01/18 06:13:35;;;;;;;18.85;8.75;;;;;;;0.73;66.78;99942.75;4771882;30;20051;-79
2023/01/18 06:16:02;;;;;;;19.70;9.07;;;;;;;0.41;66.21;99895.59;4771486;30;20043;-79
2023/01/18 06:18:31;;;;;;;19.42;8.38;;;;;;;0.73;67.21;99942.75;4757297;30;20050;-79
2023/01/18 06:21:00;;;;;;;21.08;9.35;;;;;;;0.85;67.04;99962.81;4799985;29;20579;-80
2023/01/18 06:23:34;;;;;;;17.67;8.95;;;;;;;0.97;67.24;99971.72;4769920;30;20056;-79
2023/01/18 06:26:00;;;;;;;18.90;7.88;;;;;;;0.99;66.05;99983.75;4771190;30;20135;-80
2023/01/18 06:28:26;;;;;;;20.98;9.10;;;;;;;0.98;66.10;99973.47;4767515;30;20118;-81
2023/01/18 06:30:53;;;;;;;18.52;8.40;;;;;;;1.04;67.04;99989.91;4752037;30;20040;-79
2023/01/18 06:33:20;;;;;;;16.55;7.97;;;;;;;1.01;65.62;99982.13;4752382;30;20052;-80
2023/01/18 06:35:46;;;;;;;15.00;7.93;;;;;;;1.14;66.65;99968.00;4766444;30;20048;-79
2023/01/18 06:38:12;;;;;;;17.00;8.32;;;;;;;1.00;65.55;99961.56;4768400;30;20063;-81
2023/01/18 06:40:39;;;;;;;15.30;7.68;;;;;;;0.40;65.27;99898.97;4758999;30;20040;-78
2023/01/18 06:43:07;;;;;;;21.27;9.15;;;;;;;0.96;66.22;99985.34;4771684;30;20148;-81
2023/01/18 06:45:35;;;;;;;17.92;8.45;;;;;;;1.03;66.63;99992.41;4756462;30;20044;-80
2023/01/18 06:48:08;;;;;;;14.02;7.22;;;;;;;0.88;65.97;99970.59;4769069;30;20083;-81
2023/01/18 06:50:41;;;;;;;18.63;9.25;;;;;;;0.67;65.80;99926.34;4775283;30;20512;-85
2023/01/18 06:53:11;;;;;;;15.70;7.55;;;;;;;1.02;66.00;99993.22;4757122;30;20099;-81
2023/01/18 06:56:33;;;;;;;;;;;;;;;;;;;;;
2023/01/18 06:59:16;;;;;;;20.90;7.63;;;;;;;1.00;65.70;99992.31;4780890;29;20512;-79
2023/01/18 07:01:42;;;;;;;17.17;8.65;;;;;;;0.31;65.72;99861.13;4754076;30;20553;-80
2023/01/18 07:04:08;;;;;;;17.90;7.90;;;;;;;0.74;65.76;99928.28;4770796;30;20183;-82
2023/01/18 07:06:35;;;;;;;18.90;8.48;;;;;;;1.09;65.20;99976.38;4772266;30;20056;-84
2023/01/18 07:09:02;;;;;;;18.60;8.90;;;;;;;1.16;65.90;99988.56;4768772;30;20135;-79
2023/01/18 07:11:28;;;;;;;17.13;7.95;;;;;;;1.10;65.67;100001.19;4770486;30;20052;-80
2023/01/18 07:13:54;;;;;;;16.83;7.47;;;;;;;0.99;65.48;100003.41;4768478;30;20044;-80
2023/01/18 07:16:20;;;;;;;17.48;8.10;;;;;;;1.02;65.25;100021.41;4755749;30;20056;-80
2023/01/18 07:18:48;;;;;;;19.52;9.50;;;;;;;1.02;65.50;100018.84;4774445;30;20043;-81
2023/01/18 07:21:16;;;;;;;16.52;8.10;;;;;;;1.09;65.63;100010.56;4796388;30;20028;-80
2023/01/18 07:23:43;;;;;;;18.17;8.02;;;;;;;1.17;65.86;100021.94;4759050;30;20052;-81
2023/01/18 07:26:14;;;;;;;16.75;8.25;;;;;;;0.86;65.10;99973.94;4754793;30;20052;-79
2023/01/18 07:28:40;;;;;;;14.45;7.53;;;;;;;1.10;65.28;99999.50;4782831;29;20064;-82
2023/01/18 07:31:07;;;;;;;18.25;8.00;;;;;;;1.01;65.17;99994.06;4772646;30;20501;-80
2023/01/18 07:33:34;;;;;;;17.83;8.45;;;;;;;1.02;65.54;99998.34;4755883;30;20052;-82
2023/01/18 07:36:04;;;;;;;17.67;8.20;;;;;;;1.23;65.35;100015.25;4768332;30;20071;-81
2023/01/18 07:38:31;;;;;;;16.70;8.63;;;;;;;1.24;65.26;100022.13;4784543;29;20048;-80
2023/01/18 07:41:07;;;;;;;14.60;7.90;;;;;;;1.29;65.58;100025.72;4774174;30;20143;-83
2023/01/18 07:43:36;;;;;;;16.80;7.82;;;;;;;0.99;65.57;99975.22;4776361;30;20051;-83
2023/01/18 07:46:10;;;;;;;15.68;8.18;;;;;;;1.32;65.20;100028.38;4790372;29;20044;-80
2023/01/18 07:48:51;;;;;;;17.55;8.32;;;;;;;1.08;65.53;100006.25;4742321;30;20422;-80
2023/01/18 07:51:19;;;;;;;17.30;7.63;;;;;;;1.10;65.30;100002.06;4782430;29;20531;-80
2023/01/18 07:53:45;;;;;;;21.25;8.40;;;;;;;1.24;65.36;100015.31;4753646;30;20074;-81
2023/01/18 07:56:14;;;;;;;16.20;7.93;;;;;;;1.28;65.32;99993.22;4768799;30;20048;-80
2023/01/18 07:58:40;;;;;;;16.55;8.25;;;;;;;1.18;64.97;99972.41;4752823;30;20047;-80
2023/01/18 08:01:09;;;;;;;21.85;8.57;;;;;;;1.48;65.25;100009.22;4792586;29;20083;-82
2023/01/18 08:03:36;;;;;;;19.15;8.73;;;;;;;1.13;64.78;99947.44;4781668;30;20040;-81
2023/01/18 08:06:06;;;;;;;18.73;8.73;;;;;;;1.46;65.07;100009.16;4790699;29;20478;-83
2023/01/18 08:08:34;;;;;;;17.65;8.27;;;;;;;1.63;65.34;100016.53;4768727;30;20048;-80
2023/01/18 08:11:05;;;;;;;14.80;7.32;;;;;;;1.58;64.46;100012.97;4767800;30;20111;-81
2023/01/18 08:13:32;;;;;;;17.65;8.75;;;;;;;1.59;65.37;99992.47;4781323;29;20052;-80
2023/01/18 08:16:00;;;;;;;16.63;8.25;;;;;;;1.14;63.88;99931.25;4752571;30;20158;-81
2023/01/18 08:18:32;;;;;;;15.90;8.52;;;;;;;1.43;64.46;99972.31;4770844;30;20047;-81
2023/01/18 08:20:59;;;;;;;15.93;8.30;;;;;;;1.72;64.39;100011.69;4753281;30;20052;-81
2023/01/18 08:23:45;;;;;;;15.98;8.50;;;;;;;1.71;63.63;100017.63;4768318;30;20371;-79
2023/01/18 08:26:46;;;;;;;17.05;7.75;;;;;;;1.04;64.22;99907.00;4757623;30;20056;-79
2023/01/18 08:29:22;;;;;;;16.67;7.88;;;;;;;0.78;64.24;99875.44;4762718;30;20146;-80
2023/01/18 08:31:51;;;;;;;15.55;7.63;;;;;;;0.50;64.07;99821.66;4787179;29;20097;-79
2023/01/18 08:34:17;;;;;;;19.48;8.73;;;;;;;0.29;64.42;99794.53;4772506;30;20079;-80
2023/01/18 08:36:43;;;;;;;20.90;9.25;;;;;;;0.92;65.25;99875.88;4795676;29;20043;-83
2023/01/18 08:39:13;;;;;;;18.67;8.70;;;;;;;1.57;63.74;99993.25;4759246;30;20048;-80
2023/01/18 08:41:40;;;;;;;21.15;9.18;;;;;;;1.67;64.13;100015.78;4768695;30;20048;-81
2023/01/18 08:44:06;;;;;;;20.90;8.80;;;;;;;1.66;64.58;100037.13;4783826;29;20062;-80
2023/01/18 08:46:32;;;;;;;18.95;9.60;;;;;;;1.65;64.36;100033.72;4784853;29;20560;-81
2023/01/18 08:49:04;;;;;;;20.95;8.77;;;;;;;1.24;64.06;99966.59;4772074;30;20043;-80
2023/01/18 08:51:33;;;;;;;19.70;9.73;;;;;;;1.04;64.80;99968.53;4790868;29;20052;-81
2023/01/18 08:54:05;;;;;;;18.27;8.52;;;;;;;1.63;64.73;100073.84;4775949;30;20056;-80
2023/01/18 08:56:33;;;;;;;16.67;9.57;;;;;;;1.67;64.98;100046.56;4784354;29;20079;-81
2023/01/18 08:58:59;;;;;;;22.42;9.63;;;;;;;1.57;64.23;100037.72;4756256;30;20040;-81
2023/01/18 09:01:28;;;;;;;18.60;9.23;;;;;;;1.29;64.68;99987.25;4786799;29;20632;-80
2023/01/18 09:03:57;;;;;;;20.52;9.15;;;;;;;1.40;64.62;100001.31;4795344;29;20048;-80
2023/01/18 09:06:30;;;;;;;14.63;8.20;;;;;;;0.49;64.92;99867.69;4770146;30;20054;-81
2023/01/18 09:08:57;;;;;;;14.50;8.07;;;;;;;1.18;64.80;99980.13;4774989;30;20047;-81
2023/01/18 09:11:34;;;;;;;20.67;8.75;;;;;;;1.55;65.13;100023.97;4735091;30;20067;-80
2023/01/18 09:14:01;;;;;;;18.38;8.93;;;;;;;1.63;65.53;100037.94;4790150;29;20107;-82
2023/01/18 09:16:28;;;;;;;16.17;8.80;;;;;;;1.76;65.48;100026.34;4787494;30;20340;-81
2023/01/18 09:18:55;;;;;;;17.73;8.70;;;;;;;1.82;65.14;100025.66;4791096;30;20051;-81
2023/01/18 09:21:21;;;;;;;19.67;10.13;;;;;;;1.55;65.14;99989.78;4810207;29;20040;-78
2023/01/18 09:23:47;;;;;;;19.23;8.93;;;;;;;1.61;65.02;100011.34;4782165;30;20140;-82
2023/01/18 09:26:19;;;;;;;22.38;9.80;;;;;;;1.90;65.42;100036.16;4781746;30;20224;-80
2023/01/18 09:28:49;;;;;;;20.20;9.32;;;;;;;1.76;65.53;100010.94;4784147;30;20090;-82
2023/01/18 09:31:16;;;;;;;17.27;8.90;;;;;;;2.01;65.15;100034.78;4770858;30;20085;-80
2023/01/18 09:33:42;;;;;;;20.70;8.43;;;;;;;2.03;64.74;100039.94;4785911;30;20280;-81
2023/01/18 09:36:11;;;;;;;17.30;8.90;;;;;;;1.93;65.70;100033.69;4786667;29;20044;-81
2023/01/18 09:38:38;;;;;;;15.60;8.45;;;;;;;2.16;65.78;100042.06;4776965;30;20044;-82
2023/01/18 09:41:26;;;;;;;17.38;8.52;;;;;;;1.94;64.24;100020.00;4764419;30;20105;-80
2023/01/18 09:43:56;;;;;;;18.25;8.35;;;;;;;2.19;65.39;100043.84;4763088;30;20047;-82
2023/01/18 09:46:26;;;;;;;17.60;8.48;;;;;;;2.07;65.02;100034.09;4774962;30;20134;-84
2023/01/18 09:49:02;;;;;;;16.13;8.77;;;;;;;1.77;64.88;99983.56;4745018;30;20050;-84
2023/01/18 09:51:53;;;;;;;17.48;8.45;;;;;;;2.19;65.15;100043.84;4778344;30;20047;-80
2023/01/18 09:54:25;;;;;;;19.60;8.38;;;;;;;2.23;64.92;100035.41;4788427;29;20083;-83
2023/01/18 09:57:00;;;;;;;17.52;9.23;;;;;;;2.24;65.08;100044.84;4771482;30;20091;-81
2023/01/18 09:59:32;;;;;;;19.42;9.98;;;;;;;1.41;65.31;99908.16;4758425;30;20545;-82
2023/01/18 10:02:18;;;;;;;18.52;8.45;;;;;;;2.23;64.80;100037.97;4773198;30;20047;-84
2023/01/18 10:04:49;;;;;;;18.33;8.75;;;;;;;2.13;65.02;100010.28;4774654;30;20064;-82
2023/01/18 10:07:17;;;;;;;15.80;8.02;;;;;;;2.29;64.41;100040.72;4775941;30;20056;-81
2023/01/18 10:09:54;;;;;;;19.08;8.93;;;;;;;2.19;64.68;100051.56;4775703;30;20421;-82
2023/01/18 10:12:59;;;;;;;16.80;8.80;;;;;;;2.18;64.55;100062.66;4758371;30;20258;-83
2023/01/18 10:15:33;;;;;;;17.13;8.10;;;;;;;2.11;64.63;100033.34;4762193;30;20052;-81
2023/01/18 10:18:00;;;;;;;15.00;7.32;;;;;;;1.98;63.91;100041.53;4770767;30;20055;-82
2023/01/18 10:20:35;;;;;;;16.85;8.52;;;;;;;2.15;64.41;100068.56;4787891;29;20135;-81
2023/01/18 10:23:33;;;;;;;18.20;8.52;;;;;;;1.96;64.62;100041.47;4783705;29;20047;-83
2023/01/18 10:26:40;;;;;;;15.40;8.13;;;;;;;1.07;64.85;99871.22;4786144;29;20054;-84
2023/01/18 10:29:44;;;;;;;16.52;8.40;;;;;;;2.26;64.80;100043.22;4769621;30;20051;-82
2023/01/18 18:11:17;;;;;;;22.88;11.23;;;;;;;-0.01;67.23;99969.25;5100872;27;20418;-80
2023/01/18 18:13:47;;;;;;;22.48;10.32;;;;;;;0.39;67.99;100033.81;5077022;28;20047;-79
2023/01/18 18:16:14;;;;;;;23.35;10.77;;;;;;;0.35;68.49;100031.97;5048910;28;20060;-79
2023/01/18 18:18:40;;;;;;;22.45;10.90;;;;;;;0.48;67.43;100040.06;5054170;28;20130;-81
2023/01/18 18:21:22;;;;;;;23.80;10.52;;;;;;;0.27;68.06;100000.06;5081911;28;20040;-76
2023/01/18 18:23:50;;;;;;;25.30;11.18;;;;;;;0.53;68.14;100021.50;5059855;28;20157;-80
2023/01/18 18:26:16;;;;;;;22.73;10.48;;;;;;;0.49;67.87;100050.38;5093294;28;20137;-78
2023/01/18 18:28:46;;;;;;;18.40;9.55;;;;;;;0.49;67.82;100031.56;5061793;28;20036;-78
2023/01/18 18:31:15;;;;;;;23.05;10.93;;;;;;;0.53;69.17;100015.50;5079074;28;20102;-78
2023/01/18 18:33:44;;;;;;;18.45;9.10;;;;;;;0.35;68.44;99985.88;5082413;28;20048;-80
2023/01/18 18:36:26;;;;;;;25.27;10.77;;;;;;;-0.20;68.51;99875.59;5058531;28;20056;-80
2023/01/18 18:39:08;;;;;;;21.30;9.77;;;;;;;0.51;68.12;100012.00;5042937;28;20048;-79
2023/01/18 18:41:34;;;;;;;;;;;;;;;0.53;68.30;100000.13;5059194;28;20040;-80
2023/01/18 18:44:05;;;;;;;22.75;10.15;;;;;;;0.57;68.48;100012.22;5079483;28;19916;-80
2023/01/18 18:46:34;;;;;;;17.52;9.18;;;;;;;0.47;68.69;99980.31;5088381;28;20037;-78
2023/01/18 22:30:12;;;;;;;30.35;12.65;;;;;;;0.98;73.08;99815.44;5063756;28;20416;-81
2023/01/18 22:32:39;;;;;;;23.20;10.77;;;;;;;1.17;73.54;99852.75;5051486;28;20044;-84
2023/01/18 22:35:06;;;;;;;23.55;10.20;;;;;;;1.27;73.19;99863.25;5035470;28;20041;-83
2023/01/18 22:37:35;;;;;;;23.23;10.07;;;;;;;1.20;72.84;99863.09;5053170;28;20485;-82
2023/01/18 22:40:09;;;;;;;24.02;10.27;;;;;;;1.03;73.26;99803.63;5051431;28;20041;-81
2023/01/18 22:42:35;;;;;;;22.70;9.70;;;;;;;0.89;73.23;99799.78;5039495;28;20577;-81
2023/01/18 22:47:53;;;;;;;24.58;10.18;;;;;;;1.23;73.00;99864.00;5042803;28;20052;-81
2023/01/18 22:50:24;;;;;;;25.05;10.88;;;;;;;1.00;73.30;99815.47;5066533;28;20048;-83
2023/01/18 22:52:53;;;;;;;22.98;10.30;;;;;;;1.18;72.64;99839.13;5050825;28;20041;-80
2023/01/18 22:55:21;;;;;;;23.10;10.52;;;;;;;1.14;73.48;99833.81;5042389;28;20417;-79
2023/01/18 22:57:47;;;;;;;18.77;8.85;;;;;;;0.80;72.35;99804.63;5042187;28;20147;-79
2023/01/18 23:00:13;;;;;;;26.48;11.80;;;;;;;1.07;72.77;99855.00;5059530;28;20048;-81
2023/01/18 23:02:39;;;;;;;22.50;9.75;;;;;;;1.01;73.07;99869.34;5042103;28;20049;-78
2023/01/18 23:05:11;;;;;;;21.55;10.23;;;;;;;0.84;73.55;99835.50;5042444;28;20551;-79
2023/01/18 23:07:37;;;;;;;25.13;10.55;;;;;;;0.81;73.74;99835.41;5052885;28;20044;-80
2023/01/18 23:10:03;;;;;;;24.13;9.95;;;;;;;0.88;73.38;99847.59;5060515;28;20044;-82
2023/01/18 23:12:29;;;;;;;24.85;9.65;;;;;;;0.81;73.74;99847.38;5038789;28;20037;-79
2023/01/18 23:17:44;;;;;;;22.08;10.30;;;;;;;0.73;73.67;99857.38;5047832;28;20056;-82
2023/01/18 23:20:15;;;;;;;25.08;10.30;;;;;;;-0.47;74.00;99647.91;5049788;28;20041;-83
2023/01/18 23:22:44;;;;;;;21.30;10.63;;;;;;;0.35;74.73;99770.81;5031618;28;20037;-82
2023/01/18 23:25:10;;;;;;;24.33;10.30;;;;;;;0.77;74.18;99831.03;5049078;28;20041;-81
2023/01/18 23:27:38;;;;;;;25.13;10.40;;;;;;;0.79;74.09;99825.94;5063415;28;20037;-83
2023/01/18 23:30:05;;;;;;;22.38;9.95;;;;;;;0.81;74.02;99842.25;5059238;28;20075;-85
2023/01/18 23:32:34;;;;;;;30.80;11.07;;;;;;;0.83;75.09;99840.59;5051599;28;20159;-82
2023/01/18 23:35:00;;;;;;;26.13;11.02;;;;;;;0.32;74.11;99739.13;5047490;28;20048;-78
2023/01/18 23:37:27;;;;;;;27.27;9.20;;;;;;;0.59;74.52;99808.25;5053586;28;20132;-81
2023/01/18 23:56:33;;;;;;;25.27;9.25;;;;;;;0.57;74.31;99786.84;5053061;28;20087;-84
2023/01/18 23:59:01;;;;;;;23.55;10.70;;;;;;;0.53;75.24;99805.50;5051998;28;20049;-83
